sensor_id;sensor_type;location;lat;lon;timestamp;temperature;humidity
75819;DHT22;64453;51.944;9.796;2022-11-15T00:00:29;14.60;57.10
75819;DHT22;64453;51.944;9.796;2022-11-15T00:02:56;14.50;57.30
75819;DHT22;64453;51.944;9.796;2022-11-15T00:05:23;14.60;57.10
75819;DHT22;64453;51.944;9.796;2022-11-15T00:07:50;14.60;57.30
75819;DHT22;64453;51.944;9.796;2022-11-15T00:10:17;14.70;57.40
75819;DHT22;64453;51.944;9.796;2022-11-15T00:12:46;14.70;57.20
75819;DHT22;64453;51.944;9.796;2022-11-15T00:15:13;14.70;57.40
75819;DHT22;64453;51.944;9.796;2022-11-15T00:17:40;14.50;58.00
75819;DHT22;64453;51.944;9.796;2022-11-15T00:20:08;14.50;58.00
75819;DHT22;64453;51.944;9.796;2022-11-15T00:22:37;14.60;58.10
75819;DHT22;64453;51.944;9.796;2022-11-15T00:25:04;14.70;58.10
75819;DHT22;64453;51.944;9.796;2022-11-15T00:27:32;14.80;57.90
75819;DHT22;64453;51.944;9.796;2022-11-15T00:30:00;14.80;58.10
75819;DHT22;64453;51.944;9.796;2022-11-15T00:32:31;14.80;58.10
75819;DHT22;64453;51.944;9.796;2022-11-15T00:34:58;14.90;58.10
75819;DHT22;64453;51.944;9.796;2022-11-15T00:37:25;14.90;58.20
75819;DHT22;64453;51.944;9.796;2022-11-15T00:39:52;15.00;58.30
75819;DHT22;64453;51.944;9.796;2022-11-15T00:42:19;14.90;58.20
75819;DHT22;64453;51.944;9.796;2022-11-15T00:44:46;14.90;58.20
75819;DHT22;64453;51.944;9.796;2022-11-15T00:47:14;14.90;58.40
75819;DHT22;64453;51.944;9.796;2022-11-15T00:49:41;15.00;58.50
75819;DHT22;64453;51.944;9.796;2022-11-15T00:52:08;15.00;58.30
75819;DHT22;64453;51.944;9.796;2022-11-15T00:54:35;14.90;58.60
75819;DHT22;64453;51.944;9.796;2022-11-15T00:57:02;15.00;58.60
75819;DHT22;64453;51.944;9.796;2022-11-15T00:59:29;15.00;58.60
75819;DHT22;64453;51.944;9.796;2022-11-15T01:01:56;14.90;58.90
75819;DHT22;64453;51.944;9.796;2022-11-15T01:04:24;14.90;58.80
75819;DHT22;64453;51.944;9.796;2022-11-15T01:06:51;14.90;58.70
75819;DHT22;64453;51.944;9.796;2022-11-15T01:09:18;14.80;59.10
75819;DHT22;64453;51.944;9.796;2022-11-15T01:11:45;14.80;58.70
75819;DHT22;64453;51.944;9.796;2022-11-15T01:14:12;14.80;58.80
75819;DHT22;64453;51.944;9.796;2022-11-15T01:16:40;14.90;58.90
75819;DHT22;64453;51.944;9.796;2022-11-15T01:19:07;15.00;58.70
75819;DHT22;64453;51.944;9.796;2022-11-15T01:21:35;15.00;58.70
75819;DHT22;64453;51.944;9.796;2022-11-15T01:24:02;15.00;59.30
75819;DHT22;64453;51.944;9.796;2022-11-15T01:26:30;15.00;58.60
75819;DHT22;64453;51.944;9.796;2022-11-15T01:28:57;15.00;59.10
75819;DHT22;64453;51.944;9.796;2022-11-15T01:31:24;15.00;59.20
75819;DHT22;64453;51.944;9.796;2022-11-15T01:33:50;15.00;59.30
75819;DHT22;64453;51.944;9.796;2022-11-15T01:36:19;15.00;59.20
75819;DHT22;64453;51.944;9.796;2022-11-15T01:38:54;15.10;59.40
75819;DHT22;64453;51.944;9.796;2022-11-15T01:41:23;15.20;59.30
75819;DHT22;64453;51.944;9.796;2022-11-15T01:43:53;15.20;59.20
75819;DHT22;64453;51.944;9.796;2022-11-15T01:46:28;15.30;59.30
75819;DHT22;64453;51.944;9.796;2022-11-15T01:48:59;15.30;59.20
75819;DHT22;64453;51.944;9.796;2022-11-15T01:51:30;15.30;59.40
75819;DHT22;64453;51.944;9.796;2022-11-15T01:54:03;15.30;59.30
75819;DHT22;64453;51.944;9.796;2022-11-15T01:56:38;15.40;59.30
75819;DHT22;64453;51.944;9.796;2022-11-15T01:59:09;15.40;59.40
75819;DHT22;64453;51.944;9.796;2022-11-15T02:01:36;15.40;59.60
75819;DHT22;64453;51.944;9.796;2022-11-15T02:04:06;15.40;59.60
75819;DHT22;64453;51.944;9.796;2022-11-15T02:06:37;15.40;59.50
75819;DHT22;64453;51.944;9.796;2022-11-15T02:09:06;15.40;59.60
75819;DHT22;64453;51.944;9.796;2022-11-15T02:11:33;15.50;59.50
75819;DHT22;64453;51.944;9.796;2022-11-15T02:14:01;15.50;59.30
75819;DHT22;64453;51.944;9.796;2022-11-15T02:16:35;15.60;59.10
75819;DHT22;64453;51.944;9.796;2022-11-15T02:19:22;15.60;59.10
75819;DHT22;64453;51.944;9.796;2022-11-15T02:22:35;15.50;59.10
75819;DHT22;64453;51.944;9.796;2022-11-15T02:25:22;15.50;59.00
75819;DHT22;64453;51.944;9.796;2022-11-15T02:28:16;15.60;58.80
75819;DHT22;64453;51.944;9.796;2022-11-15T02:31:09;15.40;58.90
75819;DHT22;64453;51.944;9.796;2022-11-15T02:33:42;15.30;59.00
75819;DHT22;64453;51.944;9.796;2022-11-15T02:36:15;15.30;59.10
75819;DHT22;64453;51.944;9.796;2022-11-15T02:38:50;15.40;58.70
75819;DHT22;64453;51.944;9.796;2022-11-15T02:41:25;15.50;58.40
75819;DHT22;64453;51.944;9.796;2022-11-15T02:43:58;15.50;58.20
75819;DHT22;64453;51.944;9.796;2022-11-15T02:46:32;15.60;58.20
75819;DHT22;64453;51.944;9.796;2022-11-15T02:49:19;15.60;58.10
75819;DHT22;64453;51.944;9.796;2022-11-15T02:51:48;15.60;58.30
75819;DHT22;64453;51.944;9.796;2022-11-15T02:54:19;15.60;58.20
75819;DHT22;64453;51.944;9.796;2022-11-15T02:56:48;15.60;58.30
75819;DHT22;64453;51.944;9.796;2022-11-15T02:59:37;15.60;58.10
75819;DHT22;64453;51.944;9.796;2022-11-15T03:02:22;15.60;57.80
75819;DHT22;64453;51.944;9.796;2022-11-15T03:04:56;15.60;57.90
75819;DHT22;64453;51.944;9.796;2022-11-15T03:07:28;15.50;58.20
75819;DHT22;64453;51.944;9.796;2022-11-15T03:10:03;15.40;58.10
75819;DHT22;64453;51.944;9.796;2022-11-15T03:12:37;15.40;58.30
75819;DHT22;64453;51.944;9.796;2022-11-15T03:15:11;15.40;58.30
75819;DHT22;64453;51.944;9.796;2022-11-15T03:17:47;15.20;58.80
75819;DHT22;64453;51.944;9.796;2022-11-15T03:20:17;15.30;58.40
75819;DHT22;64453;51.944;9.796;2022-11-15T03:22:47;15.30;58.70
75819;DHT22;64453;51.944;9.796;2022-11-15T03:25:18;15.20;58.80
75819;DHT22;64453;51.944;9.796;2022-11-15T03:27:48;15.10;59.40
75819;DHT22;64453;51.944;9.796;2022-11-15T03:30:17;15.30;58.70
75819;DHT22;64453;51.944;9.796;2022-11-15T03:32:47;15.30;58.50
75819;DHT22;64453;51.944;9.796;2022-11-15T03:35:20;15.40;58.40
75819;DHT22;64453;51.944;9.796;2022-11-15T03:37:53;15.40;58.50
75819;DHT22;64453;51.944;9.796;2022-11-15T03:40:25;15.30;58.70
75819;DHT22;64453;51.944;9.796;2022-11-15T03:43:01;15.20;58.80
75819;DHT22;64453;51.944;9.796;2022-11-15T03:45:35;15.30;58.50
75819;DHT22;64453;51.944;9.796;2022-11-15T03:48:13;15.20;58.60
75819;DHT22;64453;51.944;9.796;2022-11-15T03:50:42;15.30;58.40
75819;DHT22;64453;51.944;9.796;2022-11-15T03:53:09;15.40;58.10
75819;DHT22;64453;51.944;9.796;2022-11-15T03:55:36;15.40;58.10
75819;DHT22;64453;51.944;9.796;2022-11-15T03:58:03;15.50;57.80
75819;DHT22;64453;51.944;9.796;2022-11-15T04:00:31;15.50;57.80
75819;DHT22;64453;51.944;9.796;2022-11-15T04:02:58;15.60;57.60
75819;DHT22;64453;51.944;9.796;2022-11-15T04:05:26;15.50;57.70
75819;DHT22;64453;51.944;9.796;2022-11-15T04:07:53;15.50;57.70
75819;DHT22;64453;51.944;9.796;2022-11-15T04:10:20;15.60;57.50
75819;DHT22;64453;51.944;9.796;2022-11-15T04:12:47;15.60;57.90
75819;DHT22;64453;51.944;9.796;2022-11-15T04:15:16;15.60;57.50
75819;DHT22;64453;51.944;9.796;2022-11-15T04:17:45;15.30;58.00
75819;DHT22;64453;51.944;9.796;2022-11-15T04:20:15;15.40;57.70
75819;DHT22;64453;51.944;9.796;2022-11-15T04:23:05;15.50;57.80
75819;DHT22;64453;51.944;9.796;2022-11-15T04:25:52;15.40;57.80
75819;DHT22;64453;51.944;9.796;2022-11-15T04:28:21;15.30;58.10
75819;DHT22;64453;51.944;9.796;2022-11-15T04:30:48;15.50;57.80
75819;DHT22;64453;51.944;9.796;2022-11-15T04:33:15;15.30;58.00
75819;DHT22;64453;51.944;9.796;2022-11-15T04:35:43;15.30;58.30
75819;DHT22;64453;51.944;9.796;2022-11-15T04:38:31;15.20;58.60
75819;DHT22;64453;51.944;9.796;2022-11-15T04:40:58;15.20;58.50
75819;DHT22;64453;51.944;9.796;2022-11-15T04:43:26;15.40;58.00
75819;DHT22;64453;51.944;9.796;2022-11-15T04:45:54;15.40;57.90
75819;DHT22;64453;51.944;9.796;2022-11-15T04:48:22;15.50;57.90
75819;DHT22;64453;51.944;9.796;2022-11-15T04:50:48;15.70;57.50
75819;DHT22;64453;51.944;9.796;2022-11-15T04:53:15;15.70;57.30
75819;DHT22;64453;51.944;9.796;2022-11-15T04:55:45;15.80;56.80
75819;DHT22;64453;51.944;9.796;2022-11-15T04:58:12;15.90;57.20
75819;DHT22;64453;51.944;9.796;2022-11-15T05:00:39;16.00;56.70
75819;DHT22;64453;51.944;9.796;2022-11-15T05:03:08;16.00;56.50
75819;DHT22;64453;51.944;9.796;2022-11-15T05:05:53;16.00;56.40
75819;DHT22;64453;51.944;9.796;2022-11-15T05:08:20;15.90;56.60
75819;DHT22;64453;51.944;9.796;2022-11-15T05:10:49;15.90;56.60
75819;DHT22;64453;51.944;9.796;2022-11-15T05:13:16;15.90;56.40
75819;DHT22;64453;51.944;9.796;2022-11-15T05:15:43;15.90;56.60
75819;DHT22;64453;51.944;9.796;2022-11-15T05:18:10;15.80;56.60
75819;DHT22;64453;51.944;9.796;2022-11-15T05:20:37;15.80;56.60
75819;DHT22;64453;51.944;9.796;2022-11-15T05:23:04;15.80;56.60
75819;DHT22;64453;51.944;9.796;2022-11-15T05:25:31;15.80;56.60
75819;DHT22;64453;51.944;9.796;2022-11-15T05:28:00;15.80;56.50
75819;DHT22;64453;51.944;9.796;2022-11-15T05:30:27;15.70;56.60
75819;DHT22;64453;51.944;9.796;2022-11-15T05:32:54;15.80;56.60
75819;DHT22;64453;51.944;9.796;2022-11-15T05:35:29;15.70;56.70
75819;DHT22;64453;51.944;9.796;2022-11-15T05:37:57;15.80;56.60
75819;DHT22;64453;51.944;9.796;2022-11-15T05:40:24;15.60;56.60
75819;DHT22;64453;51.944;9.796;2022-11-15T05:42:52;15.60;56.70
75819;DHT22;64453;51.944;9.796;2022-11-15T05:45:20;15.50;56.90
75819;DHT22;64453;51.944;9.796;2022-11-15T05:47:48;15.50;56.90
75819;DHT22;64453;51.944;9.796;2022-11-15T05:50:17;15.50;57.00
75819;DHT22;64453;51.944;9.796;2022-11-15T05:52:46;15.50;57.00
75819;DHT22;64453;51.944;9.796;2022-11-15T05:55:14;15.40;57.20
75819;DHT22;64453;51.944;9.796;2022-11-15T05:57:41;15.30;57.30
75819;DHT22;64453;51.944;9.796;2022-11-15T06:00:09;15.30;57.00
75819;DHT22;64453;51.944;9.796;2022-11-15T06:02:39;15.30;56.90
75819;DHT22;64453;51.944;9.796;2022-11-15T06:05:06;15.30;57.00
75819;DHT22;64453;51.944;9.796;2022-11-15T06:07:33;15.20;57.20
75819;DHT22;64453;51.944;9.796;2022-11-15T06:10:00;15.00;56.60
75819;DHT22;64453;51.944;9.796;2022-11-15T06:12:27;14.90;56.70
75819;DHT22;64453;51.944;9.796;2022-11-15T06:14:54;14.90;56.90
75819;DHT22;64453;51.944;9.796;2022-11-15T06:17:21;14.80;57.00
75819;DHT22;64453;51.944;9.796;2022-11-15T06:19:49;14.80;57.20
75819;DHT22;64453;51.944;9.796;2022-11-15T06:22:17;14.70;57.20
75819;DHT22;64453;51.944;9.796;2022-11-15T06:24:44;14.60;57.30
75819;DHT22;64453;51.944;9.796;2022-11-15T06:27:11;14.60;57.50
75819;DHT22;64453;51.944;9.796;2022-11-15T06:29:38;14.60;57.50
75819;DHT22;64453;51.944;9.796;2022-11-15T06:32:05;14.70;57.50
75819;DHT22;64453;51.944;9.796;2022-11-15T06:34:32;14.70;57.80
75819;DHT22;64453;51.944;9.796;2022-11-15T06:37:02;14.80;57.70
75819;DHT22;64453;51.944;9.796;2022-11-15T06:39:30;14.90;57.60
75819;DHT22;64453;51.944;9.796;2022-11-15T06:41:56;14.90;57.50
75819;DHT22;64453;51.944;9.796;2022-11-15T06:44:23;15.00;57.60
75819;DHT22;64453;51.944;9.796;2022-11-15T06:46:50;15.00;57.40
75819;DHT22;64453;51.944;9.796;2022-11-15T06:49:18;15.00;57.20
75819;DHT22;64453;51.944;9.796;2022-11-15T06:51:45;15.10;57.30
75819;DHT22;64453;51.944;9.796;2022-11-15T06:54:13;15.00;57.30
75819;DHT22;64453;51.944;9.796;2022-11-15T06:56:40;15.00;57.30
75819;DHT22;64453;51.944;9.796;2022-11-15T06:59:07;15.00;57.30
75819;DHT22;64453;51.944;9.796;2022-11-15T07:01:34;15.00;57.30
75819;DHT22;64453;51.944;9.796;2022-11-15T07:04:01;15.00;57.30
75819;DHT22;64453;51.944;9.796;2022-11-15T07:06:28;15.10;57.30
75819;DHT22;64453;51.944;9.796;2022-11-15T07:08:55;15.00;57.90
75819;DHT22;64453;51.944;9.796;2022-11-15T07:11:24;15.00;57.30
75819;DHT22;64453;51.944;9.796;2022-11-15T07:13:51;14.90;57.40
75819;DHT22;64453;51.944;9.796;2022-11-15T07:16:17;14.90;57.50
75819;DHT22;64453;51.944;9.796;2022-11-15T07:18:44;14.90;57.60
75819;DHT22;64453;51.944;9.796;2022-11-15T07:21:12;14.80;57.60
75819;DHT22;64453;51.944;9.796;2022-11-15T07:23:40;14.90;57.60
75819;DHT22;64453;51.944;9.796;2022-11-15T07:26:08;14.90;57.60
75819;DHT22;64453;51.944;9.796;2022-11-15T07:28:37;15.00;57.50
75819;DHT22;64453;51.944;9.796;2022-11-15T07:31:05;15.10;57.10
75819;DHT22;64453;51.944;9.796;2022-11-15T07:33:33;15.20;57.20
75819;DHT22;64453;51.944;9.796;2022-11-15T07:36:00;15.20;57.10
75819;DHT22;64453;51.944;9.796;2022-11-15T07:38:28;15.30;56.90
75819;DHT22;64453;51.944;9.796;2022-11-15T07:40:56;15.30;56.90
75819;DHT22;64453;51.944;9.796;2022-11-15T07:43:42;15.40;56.90
75819;DHT22;64453;51.944;9.796;2022-11-15T07:46:13;15.40;56.90
75819;DHT22;64453;51.944;9.796;2022-11-15T07:48:42;15.30;56.90
75819;DHT22;64453;51.944;9.796;2022-11-15T07:51:11;15.30;56.90
75819;DHT22;64453;51.944;9.796;2022-11-15T07:53:39;15.40;56.80
75819;DHT22;64453;51.944;9.796;2022-11-15T07:56:07;15.40;56.80
75819;DHT22;64453;51.944;9.796;2022-11-15T07:58:34;15.40;56.90
75819;DHT22;64453;51.944;9.796;2022-11-15T08:01:04;15.40;56.70
75819;DHT22;64453;51.944;9.796;2022-11-15T08:03:35;15.20;57.10
75819;DHT22;64453;51.944;9.796;2022-11-15T08:06:02;15.30;56.80
75819;DHT22;64453;51.944;9.796;2022-11-15T08:08:30;15.40;56.40
75819;DHT22;64453;51.944;9.796;2022-11-15T08:10:57;15.40;56.40
75819;DHT22;64453;51.944;9.796;2022-11-15T08:13:27;15.30;56.60
75819;DHT22;64453;51.944;9.796;2022-11-15T08:15:58;15.40;56.50
75819;DHT22;64453;51.944;9.796;2022-11-15T08:18:30;15.40;56.70
75819;DHT22;64453;51.944;9.796;2022-11-15T08:20:59;15.50;56.40
75819;DHT22;64453;51.944;9.796;2022-11-15T08:23:29;15.60;56.40
75819;DHT22;64453;51.944;9.796;2022-11-15T08:26:01;15.70;56.10
75819;DHT22;64453;51.944;9.796;2022-11-15T08:28:32;15.80;56.00
75819;DHT22;64453;51.944;9.796;2022-11-15T08:31:02;15.80;56.00
75819;DHT22;64453;51.944;9.796;2022-11-15T08:33:32;15.80;56.00
75819;DHT22;64453;51.944;9.796;2022-11-15T08:36:00;15.90;55.90
75819;DHT22;64453;51.944;9.796;2022-11-15T08:38:28;16.00;55.80
75819;DHT22;64453;51.944;9.796;2022-11-15T08:41:01;16.00;55.80
75819;DHT22;64453;51.944;9.796;2022-11-15T08:43:34;16.00;55.80
75819;DHT22;64453;51.944;9.796;2022-11-15T08:46:01;16.00;55.50
75819;DHT22;64453;51.944;9.796;2022-11-15T08:48:32;16.10;55.80
75819;DHT22;64453;51.944;9.796;2022-11-15T08:51:07;16.20;55.60
75819;DHT22;64453;51.944;9.796;2022-11-15T08:53:42;16.30;55.60
75819;DHT22;64453;51.944;9.796;2022-11-15T08:56:10;16.30;55.40
75819;DHT22;64453;51.944;9.796;2022-11-15T08:58:39;16.30;55.70
75819;DHT22;64453;51.944;9.796;2022-11-15T09:01:12;16.20;55.60
75819;DHT22;64453;51.944;9.796;2022-11-15T09:03:42;16.30;55.30
75819;DHT22;64453;51.944;9.796;2022-11-15T09:06:13;16.40;55.00
75819;DHT22;64453;51.944;9.796;2022-11-15T09:08:44;16.50;55.00
75819;DHT22;64453;51.944;9.796;2022-11-15T09:11:11;16.40;55.10
75819;DHT22;64453;51.944;9.796;2022-11-15T09:13:38;16.50;55.10
75819;DHT22;64453;51.944;9.796;2022-11-15T09:16:06;16.60;54.90
75819;DHT22;64453;51.944;9.796;2022-11-15T09:18:33;16.60;54.80
75819;DHT22;64453;51.944;9.796;2022-11-15T09:21:02;16.70;54.90
75819;DHT22;64453;51.944;9.796;2022-11-15T09:23:30;16.70;54.90
75819;DHT22;64453;51.944;9.796;2022-11-15T09:26:04;16.70;54.90
75819;DHT22;64453;51.944;9.796;2022-11-15T09:28:32;16.70;55.00
75819;DHT22;64453;51.944;9.796;2022-11-15T09:31:06;16.80;55.10
75819;DHT22;64453;51.944;9.796;2022-11-15T09:33:33;16.80;54.90
75819;DHT22;64453;51.944;9.796;2022-11-15T09:36:06;16.70;54.90
75819;DHT22;64453;51.944;9.796;2022-11-15T09:38:36;16.80;55.00
75819;DHT22;64453;51.944;9.796;2022-11-15T09:50:31;16.90;54.90
75819;DHT22;64453;51.944;9.796;2022-11-15T09:53:08;17.00;54.90
75819;DHT22;64453;51.944;9.796;2022-11-15T09:55:49;17.00;54.80
75819;DHT22;64453;51.944;9.796;2022-11-15T09:58:26;17.00;54.70
75819;DHT22;64453;51.944;9.796;2022-11-15T10:01:15;17.10;54.70
75819;DHT22;64453;51.944;9.796;2022-11-15T10:04:00;17.10;54.70
75819;DHT22;64453;51.944;9.796;2022-11-15T10:06:31;17.00;54.60
75819;DHT22;64453;51.944;9.796;2022-11-15T10:09:11;17.10;54.60
75819;DHT22;64453;51.944;9.796;2022-11-15T10:11:41;17.20;54.40
75819;DHT22;64453;51.944;9.796;2022-11-15T10:14:15;17.20;55.00
75819;DHT22;64453;51.944;9.796;2022-11-15T10:17:11;17.20;54.30
75819;DHT22;64453;51.944;9.796;2022-11-15T10:19:56;17.30;54.30
75819;DHT22;64453;51.944;9.796;2022-11-15T10:22:38;17.30;53.90
75819;DHT22;64453;51.944;9.796;2022-11-15T10:25:18;17.30;53.70
75819;DHT22;64453;51.944;9.796;2022-11-15T10:27:58;17.40;53.80
75819;DHT22;64453;51.944;9.796;2022-11-15T10:30:33;17.50;53.50
75819;DHT22;64453;51.944;9.796;2022-11-15T10:36:16;17.50;54.30
75819;DHT22;64453;51.944;9.796;2022-11-15T10:38:54;17.60;54.40
75819;DHT22;64453;51.944;9.796;2022-11-15T10:41:35;17.50;54.40
75819;DHT22;64453;51.944;9.796;2022-11-15T10:44:22;17.60;54.30
75819;DHT22;64453;51.944;9.796;2022-11-15T10:50:03;17.60;54.60
75819;DHT22;64453;51.944;9.796;2022-11-15T10:52:34;17.70;54.50
75819;DHT22;64453;51.944;9.796;2022-11-15T10:55:23;17.70;54.50
75819;DHT22;64453;51.944;9.796;2022-11-15T10:57:55;17.80;54.30
75819;DHT22;64453;51.944;9.796;2022-11-15T11:00:39;17.90;54.80
75819;DHT22;64453;51.944;9.796;2022-11-15T11:03:25;17.90;53.90
75819;DHT22;64453;51.944;9.796;2022-11-15T11:06:16;17.90;53.90
75819;DHT22;64453;51.944;9.796;2022-11-15T11:08:55;17.90;53.70
75819;DHT22;64453;51.944;9.796;2022-11-15T11:11:23;17.90;54.00
75819;DHT22;64453;51.944;9.796;2022-11-15T11:13:55;17.90;53.90
75819;DHT22;64453;51.944;9.796;2022-11-15T11:16:43;17.90;53.90
75819;DHT22;64453;51.944;9.796;2022-11-15T11:22:17;18.00;53.70
75819;DHT22;64453;51.944;9.796;2022-11-15T11:24:56;18.10;53.50
75819;DHT22;64453;51.944;9.796;2022-11-15T11:27:42;18.10;53.80
75819;DHT22;64453;51.944;9.796;2022-11-15T11:30:18;18.10;53.80
75819;DHT22;64453;51.944;9.796;2022-11-15T11:32:58;18.10;53.90
75819;DHT22;64453;51.944;9.796;2022-11-15T11:35:36;18.00;54.00
75819;DHT22;64453;51.944;9.796;2022-11-15T11:38:19;18.00;54.20
75819;DHT22;64453;51.944;9.796;2022-11-15T11:41:00;18.10;54.20
75819;DHT22;64453;51.944;9.796;2022-11-15T11:43:41;18.10;54.40
75819;DHT22;64453;51.944;9.796;2022-11-15T11:49:18;18.10;54.00
75819;DHT22;64453;51.944;9.796;2022-11-15T11:51:53;18.10;54.00
75819;DHT22;64453;51.944;9.796;2022-11-15T11:54:27;18.00;54.10
75819;DHT22;64453;51.944;9.796;2022-11-15T11:57:00;18.00;54.30
75819;DHT22;64453;51.944;9.796;2022-11-15T11:59:36;18.10;54.00
75819;DHT22;64453;51.944;9.796;2022-11-15T12:02:13;18.10;53.90
75819;DHT22;64453;51.944;9.796;2022-11-15T12:04:44;18.10;54.20
75819;DHT22;64453;51.944;9.796;2022-11-15T12:07:19;18.10;54.10
75819;DHT22;64453;51.944;9.796;2022-11-15T12:09:53;18.10;54.00
75819;DHT22;64453;51.944;9.796;2022-11-15T12:12:27;18.20;53.80
75819;DHT22;64453;51.944;9.796;2022-11-15T12:15:01;18.20;53.60
75819;DHT22;64453;51.944;9.796;2022-11-15T12:17:32;18.30;53.60
75819;DHT22;64453;51.944;9.796;2022-11-15T12:20:00;18.30;53.60
75819;DHT22;64453;51.944;9.796;2022-11-15T12:22:38;18.30;53.50
75819;DHT22;64453;51.944;9.796;2022-11-15T12:25:13;18.30;53.40
75819;DHT22;64453;51.944;9.796;2022-11-15T12:27:47;18.30;53.50
75819;DHT22;64453;51.944;9.796;2022-11-15T12:30:19;18.30;53.40
75819;DHT22;64453;51.944;9.796;2022-11-15T12:32:54;18.30;53.30
75819;DHT22;64453;51.944;9.796;2022-11-15T12:35:26;18.30;53.40
75819;DHT22;64453;51.944;9.796;2022-11-15T12:37:55;18.30;53.50
75819;DHT22;64453;51.944;9.796;2022-11-15T12:40:31;18.30;53.40
75819;DHT22;64453;51.944;9.796;2022-11-15T12:46:12;18.40;53.30
75819;DHT22;64453;51.944;9.796;2022-11-15T12:48:55;18.40;53.20
75819;DHT22;64453;51.944;9.796;2022-11-15T12:54:58;18.40;53.00
75819;DHT22;64453;51.944;9.796;2022-11-15T12:57:41;18.40;52.90
75819;DHT22;64453;51.944;9.796;2022-11-15T13:00:43;18.40;52.80
75819;DHT22;64453;51.944;9.796;2022-11-15T13:03:22;18.50;52.70
75819;DHT22;64453;51.944;9.796;2022-11-15T13:06:06;18.40;52.90
75819;DHT22;64453;51.944;9.796;2022-11-15T13:08:42;18.40;53.00
75819;DHT22;64453;51.944;9.796;2022-11-15T13:11:45;18.40;53.10
75819;DHT22;64453;51.944;9.796;2022-11-15T13:17:29;18.40;53.10
75819;DHT22;64453;51.944;9.796;2022-11-15T13:20:21;18.40;53.30
75819;DHT22;64453;51.944;9.796;2022-11-15T13:23:01;18.50;53.30
75819;DHT22;64453;51.944;9.796;2022-11-15T13:26:01;18.50;53.10
75819;DHT22;64453;51.944;9.796;2022-11-15T13:28:38;18.50;52.70
75819;DHT22;64453;51.944;9.796;2022-11-15T13:31:27;18.50;52.70
75819;DHT22;64453;51.944;9.796;2022-11-15T13:33:59;18.50;52.60
75819;DHT22;64453;51.944;9.796;2022-11-15T13:36:29;18.50;52.70
75819;DHT22;64453;51.944;9.796;2022-11-15T13:39:02;18.50;52.90
75819;DHT22;64453;51.944;9.796;2022-11-15T13:41:33;18.50;52.80
75819;DHT22;64453;51.944;9.796;2022-11-15T13:44:02;18.50;52.80
75819;DHT22;64453;51.944;9.796;2022-11-15T13:46:31;18.50;52.60
75819;DHT22;64453;51.944;9.796;2022-11-15T13:49:00;18.60;52.60
75819;DHT22;64453;51.944;9.796;2022-11-15T13:51:35;18.60;52.70
75819;DHT22;64453;51.944;9.796;2022-11-15T13:54:18;18.60;52.60
75819;DHT22;64453;51.944;9.796;2022-11-15T13:56:49;18.60;52.70
75819;DHT22;64453;51.944;9.796;2022-11-15T13:59:24;18.60;52.60
75819;DHT22;64453;51.944;9.796;2022-11-15T14:01:53;18.60;52.80
75819;DHT22;64453;51.944;9.796;2022-11-15T14:04:23;18.60;52.80
75819;DHT22;64453;51.944;9.796;2022-11-15T14:06:54;18.70;52.70
75819;DHT22;64453;51.944;9.796;2022-11-15T14:09:32;18.70;52.50
75819;DHT22;64453;51.944;9.796;2022-11-15T14:12:20;18.70;52.50
75819;DHT22;64453;51.944;9.796;2022-11-15T14:14:50;18.70;52.50
75819;DHT22;64453;51.944;9.796;2022-11-15T14:17:21;18.60;52.50
75819;DHT22;64453;51.944;9.796;2022-11-15T14:19:59;18.60;52.50
75819;DHT22;64453;51.944;9.796;2022-11-15T14:22:27;18.50;52.70
75819;DHT22;64453;51.944;9.796;2022-11-15T14:25:15;18.50;52.60
75819;DHT22;64453;51.944;9.796;2022-11-15T14:30:59;18.50;52.10
75819;DHT22;64453;51.944;9.796;2022-11-15T14:33:29;18.40;52.30
75819;DHT22;64453;51.944;9.796;2022-11-15T14:36:02;18.40;52.20
75819;DHT22;64453;51.944;9.796;2022-11-15T14:38:30;18.30;52.10
75819;DHT22;64453;51.944;9.796;2022-11-15T14:40:59;18.30;52.20
75819;DHT22;64453;51.944;9.796;2022-11-15T14:43:26;18.30;52.20
75819;DHT22;64453;51.944;9.796;2022-11-15T14:45:53;18.30;52.10
75819;DHT22;64453;51.944;9.796;2022-11-15T14:48:20;18.30;51.90
75819;DHT22;64453;51.944;9.796;2022-11-15T14:50:47;18.40;51.90
75819;DHT22;64453;51.944;9.796;2022-11-15T14:53:16;18.30;51.90
75819;DHT22;64453;51.944;9.796;2022-11-15T14:55:45;18.30;51.90
75819;DHT22;64453;51.944;9.796;2022-11-15T14:58:13;18.30;52.00
75819;DHT22;64453;51.944;9.796;2022-11-15T15:00:41;18.30;52.10
75819;DHT22;64453;51.944;9.796;2022-11-15T15:03:09;18.30;52.10
75819;DHT22;64453;51.944;9.796;2022-11-15T15:05:38;18.30;51.90
75819;DHT22;64453;51.944;9.796;2022-11-15T15:08:06;18.30;52.00
75819;DHT22;64453;51.944;9.796;2022-11-15T15:10:36;18.20;52.10
75819;DHT22;64453;51.944;9.796;2022-11-15T15:13:05;18.20;52.20
75819;DHT22;64453;51.944;9.796;2022-11-15T15:15:35;18.10;52.20
75819;DHT22;64453;51.944;9.796;2022-11-15T15:18:04;18.00;52.30
75819;DHT22;64453;51.944;9.796;2022-11-15T15:20:34;18.00;52.50
75819;DHT22;64453;51.944;9.796;2022-11-15T15:23:01;18.00;52.50
75819;DHT22;64453;51.944;9.796;2022-11-15T15:25:31;17.90;52.50
75819;DHT22;64453;51.944;9.796;2022-11-15T15:27:59;17.90;52.60
75819;DHT22;64453;51.944;9.796;2022-11-15T15:30:27;17.80;52.70
75819;DHT22;64453;51.944;9.796;2022-11-15T15:32:56;17.80;53.00
75819;DHT22;64453;51.944;9.796;2022-11-15T15:35:26;17.70;52.80
75819;DHT22;64453;51.944;9.796;2022-11-15T15:37:56;17.70;52.90
75819;DHT22;64453;51.944;9.796;2022-11-15T15:40:24;17.60;53.20
75819;DHT22;64453;51.944;9.796;2022-11-15T15:42:52;17.60;53.30
75819;DHT22;64453;51.944;9.796;2022-11-15T15:45:19;17.40;53.30
75819;DHT22;64453;51.944;9.796;2022-11-15T15:47:46;17.30;53.50
75819;DHT22;64453;51.944;9.796;2022-11-15T15:50:22;17.20;53.70
75819;DHT22;64453;51.944;9.796;2022-11-15T15:52:50;17.00;54.00
75819;DHT22;64453;51.944;9.796;2022-11-15T15:55:19;16.80;54.40
75819;DHT22;64453;51.944;9.796;2022-11-15T15:57:46;16.70;54.60
75819;DHT22;64453;51.944;9.796;2022-11-15T16:00:14;16.80;54.40
75819;DHT22;64453;51.944;9.796;2022-11-15T16:02:42;16.70;54.30
75819;DHT22;64453;51.944;9.796;2022-11-15T16:05:10;16.70;54.10
75819;DHT22;64453;51.944;9.796;2022-11-15T16:07:39;16.70;53.90
75819;DHT22;64453;51.944;9.796;2022-11-15T16:10:19;16.60;54.10
75819;DHT22;64453;51.944;9.796;2022-11-15T16:12:48;16.40;54.20
75819;DHT22;64453;51.944;9.796;2022-11-15T16:15:16;16.30;54.10
75819;DHT22;64453;51.944;9.796;2022-11-15T16:17:47;16.10;54.80
75819;DHT22;64453;51.944;9.796;2022-11-15T16:20:29;16.10;54.40
75819;DHT22;64453;51.944;9.796;2022-11-15T16:23:01;16.00;54.80
75819;DHT22;64453;51.944;9.796;2022-11-15T16:25:31;15.90;54.60
75819;DHT22;64453;51.944;9.796;2022-11-15T16:27:59;15.70;54.80
75819;DHT22;64453;51.944;9.796;2022-11-15T16:30:26;15.80;54.80
75819;DHT22;64453;51.944;9.796;2022-11-15T16:32:53;15.50;55.00